sensor_id;sensor_type;location;lat;lon;timestamp;temperature;humidity
21801;DHT22;11062;51.164;16.924;2022-11-22T02:40:11;24.40;34.10
21801;DHT22;11062;51.164;16.924;2022-11-22T02:42:46;23.40;34.40
21801;DHT22;11062;51.164;16.924;2022-11-22T02:45:16;24.40;34.90
21801;DHT22;11062;51.164;16.924;2022-11-22T02:47:45;22.90;34.30
21801;DHT22;11062;51.164;16.924;2022-11-22T02:50:14;24.40;36.30
21801;DHT22;11062;51.164;16.924;2022-11-22T02:52:43;24.00;35.90
21801;DHT22;11062;51.164;16.924;2022-11-22T02:55:11;23.80;36.20
21801;DHT22;11062;51.164;16.924;2022-11-22T02:57:37;24.50;34.00
21801;DHT22;11062;51.164;16.924;2022-11-22T03:00:04;24.00;36.60
21801;DHT22;11062;51.164;16.924;2022-11-22T03:02:39;24.30;35.20
21801;DHT22;11062;51.164;16.924;2022-11-22T03:05:08;23.20;36.40
21801;DHT22;11062;51.164;16.924;2022-11-22T03:07:34;23.20;35.70
21801;DHT22;11062;51.164;16.924;2022-11-22T03:10:00;23.80;37.10
21801;DHT22;11062;51.164;16.924;2022-11-22T03:12:26;23.60;37.30
21801;DHT22;11062;51.164;16.924;2022-11-22T03:14:52;22.80;37.10
21801;DHT22;11062;51.164;16.924;2022-11-22T03:17:18;22.80;35.90
21801;DHT22;11062;51.164;16.924;2022-11-22T03:19:46;23.90;35.30
21801;DHT22;11062;51.164;16.924;2022-11-22T03:22:15;23.00;35.60
21801;DHT22;11062;51.164;16.924;2022-11-22T03:24:41;24.30;37.10
21801;DHT22;11062;51.164;16.924;2022-11-22T03:27:07;23.90;37.00
21801;DHT22;11062;51.164;16.924;2022-11-22T03:29:35;22.80;34.70
21801;DHT22;11062;51.164;16.924;2022-11-22T03:32:04;24.10;36.90
21801;DHT22;11062;51.164;16.924;2022-11-22T03:34:33;24.10;36.90
21801;DHT22;11062;51.164;16.924;2022-11-22T03:37:04;23.60;35.20
21801;DHT22;11062;51.164;16.924;2022-11-22T03:39:34;24.00;35.50
21801;DHT22;11062;51.164;16.924;2022-11-22T03:42:06;24.10;35.70
21801;DHT22;11062;51.164;16.924;2022-11-22T03:44:32;23.10;35.00
21801;DHT22;11062;51.164;16.924;2022-11-22T03:47:00;23.70;37.10
21801;DHT22;11062;51.164;16.924;2022-11-22T03:49:26;23.90;35.30
21801;DHT22;11062;51.164;16.924;2022-11-22T03:51:52;24.80;37.50
21801;DHT22;11062;51.164;16.924;2022-11-22T03:54:18;23.60;36.80
21801;DHT22;11062;51.164;16.924;2022-11-22T03:56:46;23.60;37.30
21801;DHT22;11062;51.164;16.924;2022-11-22T03:59:15;23.70;37.50
21801;DHT22;11062;51.164;16.924;2022-11-22T04:01:41;22.50;35.30
21801;DHT22;11062;51.164;16.924;2022-11-22T04:04:13;22.40;36.80
21801;DHT22;11062;51.164;16.924;2022-11-22T04:06:46;23.00;35.90
21801;DHT22;11062;51.164;16.924;2022-11-22T04:09:15;23.80;37.20
21801;DHT22;11062;51.164;16.924;2022-11-22T04:11:44;24.10;36.60
21801;DHT22;11062;51.164;16.924;2022-11-22T04:14:11;23.00;37.70
21801;DHT22;11062;51.164;16.924;2022-11-22T04:16:55;23.40;36.70
21801;DHT22;11062;51.164;16.924;2022-11-22T04:19:21;23.40;36.70
21801;DHT22;11062;51.164;16.924;2022-11-22T04:21:50;23.30;36.40
21801;DHT22;11062;51.164;16.924;2022-11-22T04:24:16;23.20;35.10
21801;DHT22;11062;51.164;16.924;2022-11-22T04:27:04;23.90;37.30
21801;DHT22;11062;51.164;16.924;2022-11-22T04:29:30;23.30;38.40
21801;DHT22;11062;51.164;16.924;2022-11-22T04:31:55;24.00;38.50
21801;DHT22;11062;51.164;16.924;2022-11-22T04:34:40;23.70;36.80
21801;DHT22;11062;51.164;16.924;2022-11-22T04:37:06;23.50;38.00
21801;DHT22;11062;51.164;16.924;2022-11-22T04:39:32;23.40;37.50
21801;DHT22;11062;51.164;16.924;2022-11-22T04:42:06;23.30;37.90
21801;DHT22;11062;51.164;16.924;2022-11-22T04:44:51;22.70;35.00
21801;DHT22;11062;51.164;16.924;2022-11-22T04:47:24;22.10;36.80
21801;DHT22;11062;51.164;16.924;2022-11-22T04:50:12;23.60;35.20
21801;DHT22;11062;51.164;16.924;2022-11-22T04:52:59;23.20;36.20
21801;DHT22;11062;51.164;16.924;2022-11-22T04:55:25;24.20;36.70
21801;DHT22;11062;51.164;16.924;2022-11-22T04:57:53;23.10;38.30
21801;DHT22;11062;51.164;16.924;2022-11-22T05:00:19;23.20;35.40
21801;DHT22;11062;51.164;16.924;2022-11-22T05:02:55;22.70;37.90
21801;DHT22;11062;51.164;16.924;2022-11-22T05:05:21;23.90;37.30
21801;DHT22;11062;51.164;16.924;2022-11-22T05:07:50;23.60;36.30
21801;DHT22;11062;51.164;16.924;2022-11-22T05:10:19;24.00;36.40
21801;DHT22;11062;51.164;16.924;2022-11-22T05:12:44;23.70;36.20
21801;DHT22;11062;51.164;16.924;2022-11-22T05:15:16;23.30;38.50
21801;DHT22;11062;51.164;16.924;2022-11-22T05:17:48;23.70;36.40
21801;DHT22;11062;51.164;16.924;2022-11-22T05:20:17;24.10;35.40
21801;DHT22;11062;51.164;16.924;2022-11-22T05:22:42;23.30;37.70
21801;DHT22;11062;51.164;16.924;2022-11-22T05:25:27;23.40;36.70
21801;DHT22;11062;51.164;16.924;2022-11-22T05:27:53;24.30;38.30
21801;DHT22;11062;51.164;16.924;2022-11-22T05:30:19;23.50;37.70
21801;DHT22;11062;51.164;16.924;2022-11-22T05:32:45;23.40;38.30
21801;DHT22;11062;51.164;16.924;2022-11-22T05:35:11;23.30;37.90
21801;DHT22;11062;51.164;16.924;2022-11-22T05:37:37;23.50;38.30
21801;DHT22;11062;51.164;16.924;2022-11-22T05:40:03;22.90;36.80
21801;DHT22;11062;51.164;16.924;2022-11-22T05:42:30;23.70;36.40
21801;DHT22;11062;51.164;16.924;2022-11-22T05:44:59;22.40;36.10
21801;DHT22;11062;51.164;16.924;2022-11-22T05:47:33;22.40;35.90
21801;DHT22;11062;51.164;16.924;2022-11-22T05:49:59;24.00;36.60
21801;DHT22;11062;51.164;16.924;2022-11-22T05:52:25;23.90;37.30
21801;DHT22;11062;51.164;16.924;2022-11-22T05:54:51;23.20;37.00
21801;DHT22;11062;51.164;16.924;2022-11-22T05:57:17;23.90;37.80
21801;DHT22;11062;51.164;16.924;2022-11-22T05:59:46;23.90;38.00
21801;DHT22;11062;51.164;16.924;2022-11-22T06:02:12;24.10;36.50
21801;DHT22;11062;51.164;16.924;2022-11-22T06:04:37;23.00;38.00
21801;DHT22;11062;51.164;16.924;2022-11-22T06:07:06;23.60;38.10
21801;DHT22;11062;51.164;16.924;2022-11-22T06:09:32;23.90;38.00
21801;DHT22;11062;51.164;16.924;2022-11-22T06:12:04;24.30;38.00
21801;DHT22;11062;51.164;16.924;2022-11-22T06:14:30;24.00;35.50
21801;DHT22;11062;51.164;16.924;2022-11-22T06:16:59;23.90;37.70
21801;DHT22;11062;51.164;16.924;2022-11-22T06:19:31;24.30;36.80
21801;DHT22;11062;51.164;16.924;2022-11-22T06:22:06;24.00;36.30
21801;DHT22;11062;51.164;16.924;2022-11-22T06:24:37;23.90;35.10
21801;DHT22;11062;51.164;16.924;2022-11-22T06:27:03;24.20;37.40
21801;DHT22;11062;51.164;16.924;2022-11-22T06:29:29;24.30;37.70
21801;DHT22;11062;51.164;16.924;2022-11-22T06:31:55;24.20;37.30
21801;DHT22;11062;51.164;16.924;2022-11-22T06:34:23;24.40;37.40
21801;DHT22;11062;51.164;16.924;2022-11-22T06:36:53;23.60;36.40
21801;DHT22;11062;51.164;16.924;2022-11-22T06:39:22;24.10;35.10
21801;DHT22;11062;51.164;16.924;2022-11-22T06:41:48;23.80;37.90
21801;DHT22;11062;51.164;16.924;2022-11-22T06:44:19;24.00;36.70
21801;DHT22;11062;51.164;16.924;2022-11-22T06:46:45;24.50;38.40
21801;DHT22;11062;51.164;16.924;2022-11-22T06:49:11;24.30;38.40
21801;DHT22;11062;51.164;16.924;2022-11-22T06:51:37;24.20;38.30
21801;DHT22;11062;51.164;16.924;2022-11-22T06:54:09;24.20;38.00
21801;DHT22;11062;51.164;16.924;2022-11-22T06:56:39;23.90;36.40
21801;DHT22;11062;51.164;16.924;2022-11-22T06:59:06;24.30;36.50
21801;DHT22;11062;51.164;16.924;2022-11-22T07:01:33;24.50;36.80
21801;DHT22;11062;51.164;16.924;2022-11-22T07:04:06;24.00;36.50
21801;DHT22;11062;51.164;16.924;2022-11-22T07:06:41;23.30;36.30
21801;DHT22;11062;51.164;16.924;2022-11-22T07:09:10;23.90;38.60
21801;DHT22;11062;51.164;16.924;2022-11-22T07:11:36;23.90;37.40
21801;DHT22;11062;51.164;16.924;2022-11-22T07:14:05;23.10;37.70
21801;DHT22;11062;51.164;16.924;2022-11-22T07:16:31;21.90;41.20
21801;DHT22;11062;51.164;16.924;2022-11-22T07:19:01;22.20;41.60
21801;DHT22;11062;51.164;16.924;2022-11-22T07:21:27;21.40;38.40
21801;DHT22;11062;51.164;16.924;2022-11-22T07:23:54;21.60;42.80
21801;DHT22;11062;51.164;16.924;2022-11-22T07:26:24;22.30;40.50
21801;DHT22;11062;51.164;16.924;2022-11-22T07:28:50;22.20;39.20
21801;DHT22;11062;51.164;16.924;2022-11-22T07:31:20;22.50;39.90
21801;DHT22;11062;51.164;16.924;2022-11-22T07:33:48;22.60;38.90
21801;DHT22;11062;51.164;16.924;2022-11-22T07:36:23;23.40;37.60
21801;DHT22;11062;51.164;16.924;2022-11-22T07:38:54;22.50;36.70
21801;DHT22;11062;51.164;16.924;2022-11-22T07:41:21;23.30;39.40
21801;DHT22;11062;51.164;16.924;2022-11-22T07:43:47;24.10;39.60
21801;DHT22;11062;51.164;16.924;2022-11-22T07:46:27;24.40;37.90
21801;DHT22;11062;51.164;16.924;2022-11-22T07:49:07;22.70;36.60
21801;DHT22;11062;51.164;16.924;2022-11-22T07:51:39;23.10;36.80
21801;DHT22;11062;51.164;16.924;2022-11-22T07:54:05;23.50;36.00
21801;DHT22;11062;51.164;16.924;2022-11-22T07:56:34;23.60;37.00
21801;DHT22;11062;51.164;16.924;2022-11-22T07:59:00;24.50;36.40
21801;DHT22;11062;51.164;16.924;2022-11-22T08:01:31;24.60;36.40
21801;DHT22;11062;51.164;16.924;2022-11-22T08:03:57;23.50;35.50
21801;DHT22;11062;51.164;16.924;2022-11-22T08:06:23;24.60;36.80
21801;DHT22;11062;51.164;16.924;2022-11-22T08:08:49;25.10;36.90
21801;DHT22;11062;51.164;16.924;2022-11-22T08:11:15;24.50;36.50
21801;DHT22;11062;51.164;16.924;2022-11-22T08:13:41;24.10;36.40
21801;DHT22;11062;51.164;16.924;2022-11-22T08:16:14;25.20;36.50
21801;DHT22;11062;51.164;16.924;2022-11-22T08:18:44;25.20;35.60
21801;DHT22;11062;51.164;16.924;2022-11-22T08:21:12;25.40;35.80
21801;DHT22;11062;51.164;16.924;2022-11-22T08:23:40;25.20;35.60
21801;DHT22;11062;51.164;16.924;2022-11-22T08:26:07;24.70;35.30
21801;DHT22;11062;51.164;16.924;2022-11-22T08:28:34;24.50;35.30
21801;DHT22;11062;51.164;16.924;2022-11-22T08:31:15;24.60;35.30
21801;DHT22;11062;51.164;16.924;2022-11-22T08:33:41;25.00;35.50
21801;DHT22;11062;51.164;16.924;2022-11-22T08:36:11;25.50;35.90
21801;DHT22;11062;51.164;16.924;2022-11-22T08:38:37;24.40;36.40
21801;DHT22;11062;51.164;16.924;2022-11-22T08:41:06;25.50;35.80
21801;DHT22;11062;51.164;16.924;2022-11-22T08:43:32;24.40;36.20
21801;DHT22;11062;51.164;16.924;2022-11-22T08:46:01;25.50;35.90
21801;DHT22;11062;51.164;16.924;2022-11-22T08:48:28;25.50;35.90
21801;DHT22;11062;51.164;16.924;2022-11-22T08:51:01;25.40;35.60
21801;DHT22;11062;51.164;16.924;2022-11-22T08:53:32;24.50;35.20
21801;DHT22;11062;51.164;16.924;2022-11-22T08:56:00;25.60;35.90
21801;DHT22;11062;51.164;16.924;2022-11-22T08:58:28;25.50;35.80
21801;DHT22;11062;51.164;16.924;2022-11-22T09:00:55;25.00;35.50
21801;DHT22;11062;51.164;16.924;2022-11-22T09:03:22;26.30;36.40
21801;DHT22;11062;51.164;16.924;2022-11-22T09:05:48;25.00;36.80
21801;DHT22;11062;51.164;16.924;2022-11-22T09:08:16;25.40;36.20
21801;DHT22;11062;51.164;16.924;2022-11-22T09:10:43;24.80;36.90
21801;DHT22;11062;51.164;16.924;2022-11-22T09:13:12;25.00;35.70
21801;DHT22;11062;51.164;16.924;2022-11-22T09:15:40;25.50;36.30
21801;DHT22;11062;51.164;16.924;2022-11-22T09:18:06;25.20;37.10
21801;DHT22;11062;51.164;16.924;2022-11-22T09:20:34;25.00;36.80
21801;DHT22;11062;51.164;16.924;2022-11-22T09:23:10;24.60;35.70
21801;DHT22;11062;51.164;16.924;2022-11-22T09:25:36;24.80;36.80
21801;DHT22;11062;51.164;16.924;2022-11-22T09:28:01;24.80;37.50
21801;DHT22;11062;51.164;16.924;2022-11-22T09:30:30;25.20;37.40
21801;DHT22;11062;51.164;16.924;2022-11-22T09:32:59;24.90;37.90
21801;DHT22;11062;51.164;16.924;2022-11-22T09:35:25;25.00;38.00
21801;DHT22;11062;51.164;16.924;2022-11-22T09:37:51;24.30;37.20
21801;DHT22;11062;51.164;16.924;2022-11-22T09:40:17;24.60;37.70
21801;DHT22;11062;51.164;16.924;2022-11-22T09:48:14;24.00;35.00
21801;DHT22;11062;51.164;16.924;2022-11-22T09:53:37;25.30;35.60
21801;DHT22;11062;51.164;16.924;2022-11-22T09:56:10;24.80;36.00
21801;DHT22;11062;51.164;16.924;2022-11-22T09:58:49;25.50;35.70
21801;DHT22;11062;51.164;16.924;2022-11-22T10:01:25;24.90;35.30
21801;DHT22;11062;51.164;16.924;2022-11-22T10:04:09;25.00;35.30
21801;DHT22;11062;51.164;16.924;2022-11-22T10:07:27;24.80;34.80
21801;DHT22;11062;51.164;16.924;2022-11-22T10:09:58;25.00;34.90
21801;DHT22;11062;51.164;16.924;2022-11-22T10:13:00;24.90;36.30
21801;DHT22;11062;51.164;16.924;2022-11-22T10:18:25;24.50;34.90
21801;DHT22;11062;51.164;16.924;2022-11-22T10:20:56;25.60;36.00
21801;DHT22;11062;51.164;16.924;2022-11-22T10:23:24;24.80;36.60
21801;DHT22;11062;51.164;16.924;2022-11-22T10:26:05;25.20;35.20
21801;DHT22;11062;51.164;16.924;2022-11-22T10:29:04;25.30;35.00
21801;DHT22;11062;51.164;16.924;2022-11-22T10:37:36;25.70;34.60
21801;DHT22;11062;51.164;16.924;2022-11-22T10:43:20;25.40;35.20
21801;DHT22;11062;51.164;16.924;2022-11-22T10:46:14;24.60;34.80
21801;DHT22;11062;51.164;16.924;2022-11-22T10:49:26;25.20;35.10
21801;DHT22;11062;51.164;16.924;2022-11-22T11:00:37;23.20;36.80
21801;DHT22;11062;51.164;16.924;2022-11-22T11:03:15;23.60;38.50
21801;DHT22;11062;51.164;16.924;2022-11-22T11:06:03;21.80;37.10
21801;DHT22;11062;51.164;16.924;2022-11-22T11:08:44;22.50;37.70
21801;DHT22;11062;51.164;16.924;2022-11-22T11:11:18;23.90;37.70
21801;DHT22;11062;51.164;16.924;2022-11-22T11:14:11;23.90;37.10
21801;DHT22;11062;51.164;16.924;2022-11-22T11:16:44;24.00;37.50
21801;DHT22;11062;51.164;16.924;2022-11-22T11:19:16;24.30;37.20
21801;DHT22;11062;51.164;16.924;2022-11-22T11:21:43;24.80;37.10
21801;DHT22;11062;51.164;16.924;2022-11-22T11:24:13;24.20;37.30
21801;DHT22;11062;51.164;16.924;2022-11-22T11:26:51;24.60;37.20
21801;DHT22;11062;51.164;16.924;2022-11-22T11:31:49;24.40;36.90
21801;DHT22;11062;51.164;16.924;2022-11-22T11:34:26;24.50;35.30
21801;DHT22;11062;51.164;16.924;2022-11-22T11:36:56;24.80;35.50
21801;DHT22;11062;51.164;16.924;2022-11-22T11:39:31;25.50;35.60
21801;DHT22;11062;51.164;16.924;2022-11-22T11:42:02;24.90;35.00
21801;DHT22;11062;51.164;16.924;2022-11-22T11:44:47;25.40;35.40
21801;DHT22;11062;51.164;16.924;2022-11-22T11:47:33;25.00;35.70
21801;DHT22;11062;51.164;16.924;2022-11-22T11:50:01;25.20;35.40
21801;DHT22;11062;51.164;16.924;2022-11-22T11:52:28;25.90;36.20
21801;DHT22;11062;51.164;16.924;2022-11-22T11:54:59;24.60;35.80
21801;DHT22;11062;51.164;16.924;2022-11-22T11:59:56;24.70;36.20
21801;DHT22;11062;51.164;16.924;2022-11-22T12:02:39;25.70;35.00
21801;DHT22;11062;51.164;16.924;2022-11-22T12:05:09;26.10;34.50
21801;DHT22;11062;51.164;16.924;2022-11-22T12:07:48;26.10;34.70
21801;DHT22;11062;51.164;16.924;2022-11-22T12:22:32;26.60;33.70
21801;DHT22;11062;51.164;16.924;2022-11-22T12:24:44;26.70;34.20
21801;DHT22;11062;51.164;16.924;2022-11-22T12:27:18;26.50;34.20
21801;DHT22;11062;51.164;16.924;2022-11-22T12:29:44;25.50;33.80
21801;DHT22;11062;51.164;16.924;2022-11-22T12:32:26;25.30;34.30
21801;DHT22;11062;51.164;16.924;2022-11-22T12:35:23;26.70;33.90
21801;DHT22;11062;51.164;16.924;2022-11-22T12:40:24;26.00;35.30
21801;DHT22;11062;51.164;16.924;2022-11-22T12:43:45;25.50;33.90
21801;DHT22;11062;51.164;16.924;2022-11-22T12:45:51;26.50;34.60
21801;DHT22;11062;51.164;16.924;2022-11-22T12:48:31;26.70;34.50
21801;DHT22;11062;51.164;16.924;2022-11-22T12:54:07;26.00;33.20
21801;DHT22;11062;51.164;16.924;2022-11-22T12:56:51;26.90;34.20
21801;DHT22;11062;51.164;16.924;2022-11-22T13:05:03;27.30;33.50
21801;DHT22;11062;51.164;16.924;2022-11-22T13:11:15;26.60;32.60
21801;DHT22;11062;51.164;16.924;2022-11-22T13:13:51;27.40;33.20
21801;DHT22;11062;51.164;16.924;2022-11-22T13:16:17;27.40;33.20
21801;DHT22;11062;51.164;16.924;2022-11-22T13:18:57;27.30;34.20
21801;DHT22;11062;51.164;16.924;2022-11-22T13:25:04;27.40;33.20
21801;DHT22;11062;51.164;16.924;2022-11-22T13:27:41;27.30;33.20
21801;DHT22;11062;51.164;16.924;2022-11-22T13:30:25;26.90;33.70
21801;DHT22;11062;51.164;16.924;2022-11-22T13:32:53;27.30;33.80
21801;DHT22;11062;51.164;16.924;2022-11-22T13:35:33;26.40;33.10
21801;DHT22;11062;51.164;16.924;2022-11-22T13:38:05;26.50;32.50
21801;DHT22;11062;51.164;16.924;2022-11-22T13:40:43;26.90;33.40
21801;DHT22;11062;51.164;16.924;2022-11-22T13:45:52;27.50;34.60
21801;DHT22;11062;51.164;16.924;2022-11-22T13:51:08;27.50;34.60
21801;DHT22;11062;51.164;16.924;2022-11-22T13:53:38;27.40;33.10
21801;DHT22;11062;51.164;16.924;2022-11-22T14:07:25;26.80;33.90
21801;DHT22;11062;51.164;16.924;2022-11-22T14:09:56;27.60;33.20
21801;DHT22;11062;51.164;16.924;2022-11-22T14:17:46;27.60;33.10
21801;DHT22;11062;51.164;16.924;2022-11-22T14:20:33;27.50;33.50
21801;DHT22;11062;51.164;16.924;2022-11-22T14:26:36;27.20;32.80
21801;DHT22;11062;51.164;16.924;2022-11-22T14:32:13;27.80;34.40
21801;DHT22;11062;51.164;16.924;2022-11-22T14:37:34;27.00;32.50
21801;DHT22;11062;51.164;16.924;2022-11-22T14:50:42;27.70;33.00
21801;DHT22;11062;51.164;16.924;2022-11-22T14:53:25;27.00;33.10
21801;DHT22;11062;51.164;16.924;2022-11-22T14:56:33;27.70;33.50
21801;DHT22;11062;51.164;16.924;2022-11-22T15:01:58;27.60;34.50
21801;DHT22;11062;51.164;16.924;2022-11-22T15:04:39;27.70;33.10
21801;DHT22;11062;51.164;16.924;2022-11-22T15:16:00;27.60;33.40
21801;DHT22;11062;51.164;16.924;2022-11-22T15:18:36;27.50;33.80
21801;DHT22;11062;51.164;16.924;2022-11-22T15:21:23;27.30;33.50
21801;DHT22;11062;51.164;16.924;2022-11-22T15:23:51;26.80;33.40
21801;DHT22;11062;51.164;16.924;2022-11-22T15:26:21;27.10;33.50
21801;DHT22;11062;51.164;16.924;2022-11-22T15:28:50;27.50;33.70
21801;DHT22;11062;51.164;16.924;2022-11-22T15:31:23;27.20;33.40
21801;DHT22;11062;51.164;16.924;2022-11-22T15:33:55;27.50;33.80
21801;DHT22;11062;51.164;16.924;2022-11-22T15:36:33;26.90;33.90
21801;DHT22;11062;51.164;16.924;2022-11-22T15:39:14;27.60;33.30
21801;DHT22;11062;51.164;16.924;2022-11-22T15:41:46;27.60;33.40
21801;DHT22;11062;51.164;16.924;2022-11-22T15:44:15;27.50;33.80
21801;DHT22;11062;51.164;16.924;2022-11-22T15:46:42;27.50;34.00
21801;DHT22;11062;51.164;16.924;2022-11-22T15:49:18;27.50;34.00
21801;DHT22;11062;51.164;16.924;2022-11-22T15:51:54;26.30;33.40
21801;DHT22;11062;51.164;16.924;2022-11-22T15:54:22;27.50;34.00
21801;DHT22;11062;51.164;16.924;2022-11-22T15:56:58;26.90;33.60
21801;DHT22;11062;51.164;16.924;2022-11-22T15:59:29;26.60;32.90
21801;DHT22;11062;51.164;16.924;2022-11-22T16:01:58;27.50;34.00
21801;DHT22;11062;51.164;16.924;2022-11-22T16:04:30;27.50;34.00
21801;DHT22;11062;51.164;16.924;2022-11-22T16:06:59;27.50;33.90
21801;DHT22;11062;51.164;16.924;2022-11-22T16:09:39;27.50;33.90
21801;DHT22;11062;51.164;16.924;2022-11-22T16:12:34;27.60;33.80
21801;DHT22;11062;51.164;16.924;2022-11-22T16:15:32;26.60;32.90
21801;DHT22;11062;51.164;16.924;2022-11-22T16:18:13;26.90;33.10
21801;DHT22;11062;51.164;16.924;2022-11-22T16:21:04;27.40;33.30
21801;DHT22;11062;51.164;16.924;2022-11-22T16:23:31;26.40;33.20
21801;DHT22;11062;51.164;16.924;2022-11-22T16:28:42;26.70;33.40
21801;DHT22;11062;51.164;16.924;2022-11-22T16:31:21;26.80;34.20
21801;DHT22;11062;51.164;16.924;2022-11-22T16:33:47;27.70;33.90
21801;DHT22;11062;51.164;16.924;2022-11-22T16:36:17;27.60;34.30
21801;DHT22;11062;51.164;16.924;2022-11-22T16:38:44;27.60;33.90
21801;DHT22;11062;51.164;16.924;2022-11-22T16:41:21;27.10;33.30
21801;DHT22;11062;51.164;16.924;2022-11-22T16:43:55;27.70;33.80
21801;DHT22;11062;51.164;16.924;2022-11-22T16:46:21;27.00;33.40
21801;DHT22;11062;51.164;16.924;2022-11-22T16:48:50;27.70;34.70
21801;DHT22;11062;51.164;16.924;2022-11-22T16:51:27;26.40;33.10
21801;DHT22;11062;51.164;16.924;2022-11-22T16:54:05;27.70;33.70
21801;DHT22;11062;51.164;16.924;2022-11-22T16:56:41;27.70;33.60
21801;DHT22;11062;51.164;16.924;2022-11-22T16:59:08;27.70;33.80
21801;DHT22;11062;51.164;16.924;2022-11-22T17:01:39;27.70;33.80
21801;DHT22;11062;51.164;16.924;2022-11-22T17:04:23;26.50;33.00
21801;DHT22;11062;51.164;16.924;2022-11-22T17:06:50;27.70;33.80
21801;DHT22;11062;51.164;16.924;2022-11-22T17:09:16;27.60;33.90
21801;DHT22;11062;51.164;16.924;2022-11-22T17:11:43;27.70;34.00
21801;DHT22;11062;51.164;16.924;2022-11-22T17:14:13;27.70;34.00
21801;DHT22;11062;51.164;16.924;2022-11-22T17:16:42;27.70;34.10
21801;DHT22;11062;51.164;16.924;2022-11-22T17:19:16;27.20;33.70
21801;DHT22;11062;51.164;16.924;2022-11-22T17:21:43;27.00;33.60
21801;DHT22;11062;51.164;16.924;2022-11-22T17:24:22;26.50;33.40
21801;DHT22;11062;51.164;16.924;2022-11-22T17:26:48;27.50;34.00
21801;DHT22;11062;51.164;16.924;2022-11-22T17:29:17;27.00;34.60
21801;DHT22;11062;51.164;16.924;2022-11-22T17:31:49;26.90;34.40
21801;DHT22;11062;51.164;16.924;2022-11-22T17:34:15;26.40;34.30
21801;DHT22;11062;51.164;16.924;2022-11-22T17:36:46;27.50;34.80
21801;DHT22;11062;51.164;16.924;2022-11-22T17:39:12;27.50;34.00
21801;DHT22;11062;51.164;16.924;2022-11-22T17:41:41;27.60;34.30
21801;DHT22;11062;51.164;16.924;2022-11-22T17:44:14;27.60;35.00
21801;DHT22;11062;51.164;16.924;2022-11-22T17:46:40;27.30;33.80
21801;DHT22;11062;51.164;16.924;2022-11-22T17:49:09;27.30;34.60
21801;DHT22;11062;51.164;16.924;2022-11-22T17:51:36;27.00;34.50
21801;DHT22;11062;51.164;16.924;2022-11-22T17:54:03;27.70;34.10
21801;DHT22;11062;51.164;16.924;2022-11-22T17:56:29;27.60;34.10
21801;DHT22;11062;51.164;16.924;2022-11-22T17:59:00;27.30;33.90
21801;DHT22;11062;51.164;16.924;2022-11-22T18:01:29;27.60;34.10
21801;DHT22;11062;51.164;16.924;2022-11-22T18:03:57;26.60;34.20
21801;DHT22;11062;51.164;16.924;2022-11-22T18:06:24;27.00;33.60
21801;DHT22;11062;51.164;16.924;2022-11-22T18:08:50;27.40;34.60
21801;DHT22;11062;51.164;16.924;2022-11-22T18:11:19;27.70;34.00
21801;DHT22;11062;51.164;16.924;2022-11-22T18:13:45;27.70;35.20
21801;DHT22;11062;51.164;16.924;2022-11-22T18:16:13;27.70;34.60
21801;DHT22;11062;51.164;16.924;2022-11-22T18:18:40;27.30;33.40
21801;DHT22;11062;51.164;16.924;2022-11-22T18:21:09;27.60;33.70
21801;DHT22;11062;51.164;16.924;2022-11-22T18:23:40;27.80;33.70
21801;DHT22;11062;51.164;16.924;2022-11-22T18:26:10;27.00;33.20
21801;DHT22;11062;51.164;16.924;2022-11-22T18:28:43;26.70;33.00
21801;DHT22;11062;51.164;16.924;2022-11-22T18:31:14;27.30;33.10
21801;DHT22;11062;51.164;16.924;2022-11-22T18:33:40;27.50;33.20
21801;DHT22;11062;51.164;16.924;2022-11-22T18:36:23;27.30;33.60
21801;DHT22;11062;51.164;16.924;2022-11-22T19:54:34;26.70;32.60
21801;DHT22;11062;51.164;16.924;2022-11-22T19:57:03;27.00;33.50
21801;DHT22;11062;51.164;16.924;2022-11-22T19:59:32;27.70;33.90
21801;DHT22;11062;51.164;16.924;2022-11-22T20:02:01;27.30;33.80
21801;DHT22;11062;51.164;16.924;2022-11-22T20:04:33;27.60;33.90
21801;DHT22;11062;51.164;16.924;2022-11-22T20:06:59;26.90;32.80
21801;DHT22;11062;51.164;16.924;2022-11-22T20:09:28;27.00;33.40
21801;DHT22;11062;51.164;16.924;2022-11-22T20:11:54;26.90;32.70
21801;DHT22;11062;51.164;16.924;2022-11-22T20:14:20;27.50;33.40
21801;DHT22;11062;51.164;16.924;2022-11-22T20:16:46;27.50;33.80
21801;DHT22;11062;51.164;16.924;2022-11-22T20:19:12;27.50;34.10
21801;DHT22;11062;51.164;16.924;2022-11-22T20:21:42;27.50;34.00
21801;DHT22;11062;51.164;16.924;2022-11-22T20:24:08;27.00;33.80
21801;DHT22;11062;51.164;16.924;2022-11-22T20:26:37;27.40;33.40
21801;DHT22;11062;51.164;16.924;2022-11-22T20:29:07;27.40;33.80
21801;DHT22;11062;51.164;16.924;2022-11-22T20:31:46;27.00;33.00
21801;DHT22;11062;51.164;16.924;2022-11-22T20:34:12;26.70;33.80
21801;DHT22;11062;51.164;16.924;2022-11-22T20:36:43;27.30;34.20
21801;DHT22;11062;51.164;16.924;2022-11-22T20:39:09;26.50;33.80
21801;DHT22;11062;51.164;16.924;2022-11-22T20:41:39;27.20;33.50
21801;DHT22;11062;51.164;16.924;2022-11-22T20:44:06;26.00;32.20
21801;DHT22;11062;51.164;16.924;2022-11-22T20:46:37;27.10;33.50
21801;DHT22;11062;51.164;16.924;2022-11-22T20:49:07;26.20;33.00
21801;DHT22;11062;51.164;16.924;2022-11-22T20:51:36;26.70;34.10
21801;DHT22;11062;51.164;16.924;2022-11-22T20:54:05;26.30;33.20
21801;DHT22;11062;51.164;16.924;2022-11-22T20:56:31;26.60;33.40
21801;DHT22;11062;51.164;16.924;2022-11-22T20:58:57;26.90;33.50
21801;DHT22;11062;51.164;16.924;2022-11-22T21:01:26;26.70;34.10
21801;DHT22;11062;51.164;16.924;2022-11-22T21:03:52;25.40;32.50
21801;DHT22;11062;51.164;16.924;2022-11-22T21:06:21;25.70;32.90
21801;DHT22;11062;51.164;16.924;2022-11-22T21:08:51;26.30;33.40
21801;DHT22;11062;51.164;16.924;2022-11-22T21:11:23;26.70;34.10
21801;DHT22;11062;51.164;16.924;2022-11-22T21:13:56;26.40;32.90
21801;DHT22;11062;51.164;16.924;2022-11-22T21:16:25;26.70;33.60
21801;DHT22;11062;51.164;16.924;2022-11-22T21:19:00;26.70;33.50
21801;DHT22;11062;51.164;16.924;2022-11-22T21:21:30;25.80;32.50
21801;DHT22;11062;51.164;16.924;2022-11-22T21:24:01;26.70;33.50
21801;DHT22;11062;51.164;16.924;2022-11-22T21:26:28;26.70;33.50
21801;DHT22;11062;51.164;16.924;2022-11-22T21:28:55;25.60;32.70
21801;DHT22;11062;51.164;16.924;2022-11-22T21:31:22;26.60;33.50
21801;DHT22;11062;51.164;16.924;2022-11-22T21:33:51;26.60;34.00
21801;DHT22;11062;51.164;16.924;2022-11-22T21:36:18;26.10;32.70